createdAt,value
2023-04-06T00:01:44.411Z,94.40
2023-04-06T00:04:12.245Z,94.40
2023-04-06T00:06:40.136Z,94.30
2023-04-06T00:09:08.038Z,94.40
2023-04-06T00:11:38.356Z,94.30
2023-04-06T00:14:06.082Z,94.40
2023-04-06T00:16:33.812Z,94.30
2023-04-06T00:19:01.693Z,94.30
2023-04-06T00:21:29.470Z,94.40
2023-04-06T00:23:57.246Z,94.30
2023-04-06T00:26:25.716Z,94.40
2023-04-06T00:28:54.823Z,94.50
2023-04-06T00:31:22.578Z,94.60
2023-04-06T00:33:50.568Z,94.70
2023-04-06T00:36:18.298Z,94.50
2023-04-06T00:38:46.072Z,94.30
2023-04-06T00:41:13.967Z,94.40
2023-04-06T00:43:41.924Z,94.40
2023-04-06T00:46:11.134Z,94.30
2023-04-06T00:48:40.100Z,94.50
2023-04-06T00:51:07.986Z,94.50
2023-04-06T00:53:35.829Z,94.80
2023-04-06T00:56:03.607Z,94.70
2023-04-06T00:58:31.400Z,94.50
2023-04-06T01:01:00.062Z,94.40
2023-04-06T01:03:29.264Z,94.30
2023-04-06T01:05:59.217Z,94.20
2023-04-06T01:08:27.260Z,94.00
2023-04-06T01:10:54.964Z,94.10
2023-04-06T01:13:22.672Z,94.30
2023-04-06T01:15:51.271Z,94.60
2023-04-06T01:18:19.000Z,94.90
2023-04-06T01:20:48.027Z,94.70
2023-04-06T01:23:17.059Z,94.70
2023-04-06T01:25:44.766Z,94.80
2023-04-06T01:28:12.617Z,94.70
2023-04-06T01:30:40.423Z,94.80
2023-04-06T01:33:08.177Z,94.90
2023-04-06T01:35:36.156Z,94.80
2023-04-06T01:38:04.056Z,95.00
2023-04-06T01:40:33.089Z,95.10
2023-04-06T01:43:00.960Z,95.30
2023-04-06T01:45:28.651Z,95.10
2023-04-06T01:47:56.371Z,95.20
2023-04-06T01:50:24.077Z,95.20
2023-04-06T01:52:51.901Z,95.10
2023-04-06T01:55:19.584Z,95.10
2023-04-06T01:57:48.671Z,95.20
2023-04-06T02:00:17.633Z,95.30
2023-04-06T02:02:45.385Z,95.00
2023-04-06T02:05:13.366Z,94.90
2023-04-06T02:07:41.093Z,94.70
2023-04-06T02:10:14.006Z,94.70
2023-04-06T02:12:41.803Z,94.70
2023-04-06T02:15:14.128Z,94.80
2023-04-06T02:17:42.108Z,95.00
2023-04-06T02:20:10.562Z,94.70
2023-04-06T02:22:38.290Z,94.80
2023-04-06T02:25:06.651Z,94.80
2023-04-06T02:27:34.417Z,94.60
2023-04-06T02:30:02.193Z,94.50
2023-04-06T02:32:31.357Z,94.60
2023-04-06T02:34:59.082Z,94.70
2023-04-06T02:37:26.908Z,95.00
2023-04-06T02:39:54.632Z,94.80
2023-04-06T02:42:22.327Z,94.80
2023-04-06T02:44:50.249Z,94.80
2023-04-06T02:47:18.104Z,94.60
2023-04-06T02:49:48.569Z,94.60
2023-04-06T02:52:16.459Z,94.80
2023-04-06T02:54:44.143Z,94.90
2023-04-06T02:57:11.994Z,94.90
2023-04-06T02:59:39.781Z,95.10
2023-04-06T03:02:07.481Z,95.00
2023-04-06T03:04:35.218Z,95.30
2023-04-06T03:07:04.321Z,95.20
2023-04-06T03:09:32.042Z,95.30
2023-04-06T03:11:59.743Z,95.10
2023-04-06T03:14:27.460Z,94.90
2023-04-06T03:16:55.240Z,95.20
2023-04-06T03:19:23.050Z,95.10
2023-04-06T03:21:50.711Z,95.20
2023-04-06T03:24:20.513Z,94.90
2023-04-06T03:26:48.324Z,95.30
2023-04-06T03:29:16.230Z,95.50
2023-04-06T03:31:43.992Z,95.30
2023-04-06T03:34:11.864Z,94.80
2023-04-06T03:36:39.671Z,95.00
2023-04-06T03:39:07.588Z,94.60
2023-04-06T03:41:36.847Z,95.10
2023-04-06T03:44:04.573Z,95.00
2023-04-06T03:46:32.347Z,95.10
2023-04-06T03:49:00.152Z,95.00
2023-04-06T03:51:27.875Z,94.90
2023-04-06T03:53:55.700Z,95.00
2023-04-06T03:56:23.424Z,95.00
2023-04-06T03:58:52.650Z,95.10
2023-04-06T04:01:20.407Z,95.10
2023-04-06T04:03:50.987Z,94.90
2023-04-06T04:06:19.337Z,95.00
2023-04-06T04:08:47.058Z,94.70
2023-04-06T04:11:16.666Z,94.70
2023-04-06T04:13:44.521Z,94.70
2023-04-06T04:16:13.546Z,94.60
2023-04-06T04:18:41.257Z,94.60
2023-04-06T04:21:08.941Z,94.80
2023-04-06T04:23:37.513Z,95.00
2023-04-06T04:26:05.729Z,94.70
2023-04-06T04:28:33.463Z,94.70
2023-04-06T04:31:01.396Z,94.80
2023-04-06T04:33:30.455Z,94.70
2023-04-06T04:35:58.237Z,95.00
2023-04-06T04:38:25.967Z,94.90
2023-04-06T04:40:53.695Z,94.80
2023-04-06T04:43:21.426Z,94.90
2023-04-06T04:45:49.168Z,95.10
2023-04-06T04:48:16.906Z,95.10
2023-04-06T04:50:45.953Z,95.10
2023-04-06T04:53:13.659Z,95.00
2023-04-06T04:55:41.783Z,94.60
2023-04-06T04:58:11.991Z,94.80
2023-04-06T05:00:39.693Z,95.00
2023-04-06T05:03:08.080Z,95.00
2023-04-06T05:05:36.084Z,95.20
2023-04-06T05:08:05.500Z,95.50
2023-04-06T05:10:33.302Z,95.60
2023-04-06T05:13:01.025Z,95.70
2023-04-06T05:15:28.744Z,95.50
2023-04-06T05:17:56.614Z,95.20
2023-04-06T05:20:24.421Z,95.80
2023-04-06T05:22:52.118Z,95.90
2023-04-06T05:25:21.191Z,96.00
2023-04-06T05:27:48.939Z,96.10
2023-04-06T05:30:16.969Z,95.80
2023-04-06T05:32:45.376Z,96.00
2023-04-06T05:35:13.425Z,96.00
2023-04-06T05:37:41.557Z,96.20
2023-04-06T05:40:10.423Z,96.30
2023-04-06T05:42:40.177Z,96.30
2023-04-06T05:45:09.019Z,96.80
2023-04-06T05:47:37.164Z,96.70
2023-04-06T05:50:05.860Z,97.10
2023-04-06T05:52:33.587Z,97.30
2023-04-06T05:55:01.523Z,97.20
2023-04-06T05:57:29.236Z,97.40
2023-04-06T05:59:58.264Z,97.20
2023-04-06T06:02:26.173Z,97.10
2023-04-06T06:04:54.137Z,97.50
2023-04-06T06:07:21.875Z,97.60
2023-04-06T06:09:49.588Z,97.70
2023-04-06T06:12:17.365Z,98.10
2023-04-06T06:14:45.134Z,98.30
2023-04-06T06:19:43.905Z,98.60
2023-04-06T06:22:11.587Z,98.60
2023-04-06T06:24:39.424Z,98.60
2023-04-06T06:27:08.717Z,98.60
2023-04-06T06:29:36.507Z,98.90
2023-04-06T06:32:04.236Z,99.10
2023-04-06T06:34:33.366Z,99.00
2023-04-06T06:37:01.684Z,99.10
2023-04-06T06:39:29.499Z,99.40
2023-04-06T06:41:57.531Z,99.40
2023-04-06T06:44:26.126Z,99.60
2023-04-06T06:46:53.865Z,99.80
2023-04-06T06:49:21.759Z,99.90
2023-04-06T06:51:50.820Z,99.50
2023-04-06T06:54:18.608Z,98.70
2023-04-06T06:56:46.328Z,99.80
2023-04-06T06:59:18.295Z,99.90
2023-04-06T07:01:46.185Z,99.30
2023-04-06T07:04:16.603Z,99.00
2023-04-06T07:06:44.560Z,99.10
2023-04-06T07:09:13.842Z,99.50
2023-04-06T07:11:41.859Z,99.00
2023-04-06T07:14:09.672Z,98.50
2023-04-06T07:16:37.563Z,97.80
2023-04-06T07:19:05.386Z,98.40
2023-04-06T07:21:33.127Z,98.50
2023-04-06T07:24:00.934Z,98.40
2023-04-06T07:26:30.066Z,97.50
2023-04-06T07:28:58.022Z,97.50
2023-04-06T07:31:25.758Z,97.30
2023-04-06T07:33:53.518Z,96.60
2023-04-06T07:36:21.748Z,96.20
2023-04-06T07:38:49.862Z,96.50
2023-04-06T07:41:17.749Z,96.90
2023-04-06T07:43:46.805Z,96.40
2023-04-06T07:46:14.847Z,95.80
2023-04-06T07:48:42.602Z,95.60
2023-04-06T07:51:15.038Z,94.30
2023-04-06T07:53:42.783Z,94.40
2023-04-06T07:56:10.535Z,93.20
2023-04-06T07:58:38.260Z,92.30
2023-04-06T08:01:07.358Z,91.50
2023-04-06T08:03:35.974Z,90.30
2023-04-06T08:06:04.463Z,87.60
2023-04-06T08:08:32.287Z,90.00
2023-04-06T08:11:02.022Z,85.30
2023-04-06T08:13:30.344Z,84.80
2023-04-06T08:15:58.179Z,87.70
2023-04-06T08:18:27.335Z,87.30
2023-04-06T08:20:56.384Z,84.50
2023-04-06T08:23:24.071Z,83.70
2023-04-06T08:25:54.201Z,84.80
2023-04-06T08:28:22.196Z,83.10
2023-04-06T08:30:50.089Z,84.60
2023-04-06T08:33:17.920Z,83.10
2023-04-06T08:35:47.058Z,81.20
2023-04-06T08:38:14.791Z,80.40
2023-04-06T08:40:44.511Z,80.00
2023-04-06T08:43:16.309Z,78.20
2023-04-06T08:45:44.851Z,75.70
2023-04-06T08:48:14.063Z,75.60
2023-04-06T08:50:42.126Z,74.40
2023-04-06T08:53:13.048Z,75.70
2023-04-06T08:55:41.714Z,76.00
2023-04-06T08:58:10.358Z,75.50
2023-04-06T09:00:40.272Z,76.80
2023-04-06T09:03:09.365Z,76.00
2023-04-06T09:05:37.420Z,75.70
2023-04-06T09:08:05.281Z,74.10
2023-04-06T09:10:35.202Z,73.10
2023-04-06T09:13:07.606Z,73.30
2023-04-06T09:15:35.713Z,74.10
2023-04-06T09:18:03.812Z,77.50
2023-04-06T09:20:31.693Z,76.50
2023-04-06T09:22:59.702Z,78.20
2023-04-06T09:25:27.858Z,71.60
2023-04-06T09:28:03.876Z,71.70
2023-04-06T09:30:32.249Z,73.20
2023-04-06T09:33:00.840Z,75.10
2023-04-06T09:35:30.928Z,72.90
2023-04-06T09:37:58.725Z,74.80
2023-04-06T09:40:26.528Z,73.60
2023-04-06T09:42:55.369Z,73.10
2023-04-06T09:45:25.277Z,72.80
2023-04-06T09:47:57.232Z,73.50
2023-04-06T09:50:26.587Z,68.40
2023-04-06T09:52:58.029Z,67.90
2023-04-06T09:55:32.394Z,68.50
2023-04-06T09:58:06.493Z,68.70
2023-04-06T10:00:45.257Z,64.50
2023-04-06T10:03:19.329Z,63.20
2023-04-06T10:05:52.192Z,58.50
2023-04-06T10:08:22.526Z,54.80
2023-04-06T10:10:52.645Z,54.50
2023-04-06T10:13:21.390Z,56.20
2023-04-06T10:15:50.843Z,56.50
2023-04-06T10:18:18.930Z,55.70
2023-04-06T10:20:52.944Z,52.80
2023-04-06T10:23:26.019Z,55.20
2023-04-06T10:25:55.822Z,52.60
2023-04-06T10:28:23.903Z,51.80
2023-04-06T10:30:59.202Z,53.90
2023-04-06T10:33:27.088Z,57.00
2023-04-06T10:35:54.947Z,54.40
2023-04-06T10:38:23.712Z,52.60
2023-04-06T10:40:51.673Z,52.60
2023-04-06T10:43:22.217Z,54.00
2023-04-06T10:45:57.698Z,55.40
2023-04-06T10:48:26.873Z,52.00
2023-04-06T10:50:56.301Z,51.90
2023-04-06T10:53:25.477Z,51.00
2023-04-06T10:55:54.146Z,51.30
2023-04-06T10:58:22.130Z,51.20
2023-04-06T11:00:51.588Z,50.90
2023-04-06T11:03:21.345Z,55.30
2023-04-06T11:05:50.808Z,53.70
2023-04-06T11:08:26.459Z,51.40
2023-04-06T11:10:54.295Z,51.20
2023-04-06T11:13:22.089Z,51.10
2023-04-06T11:15:50.103Z,50.70
2023-04-06T11:18:21.311Z,51.70
2023-04-06T11:20:51.931Z,48.60
2023-04-06T11:23:28.760Z,47.50
2023-04-06T11:25:56.730Z,50.00
2023-04-06T11:28:24.537Z,49.30
2023-04-06T11:30:52.355Z,48.40
2023-04-06T11:33:24.522Z,47.40
2023-04-06T11:35:52.395Z,50.20
2023-04-06T11:38:21.176Z,48.80
2023-04-06T11:40:49.012Z,48.90
2023-04-06T11:43:16.736Z,48.40
2023-04-06T11:45:45.130Z,48.60
2023-04-06T11:48:21.563Z,49.70
2023-04-06T11:50:56.925Z,48.60
2023-04-06T11:53:24.690Z,48.70
2023-04-06T11:55:52.664Z,48.40
2023-04-06T11:58:20.597Z,47.90
2023-04-06T12:00:48.366Z,48.90
2023-04-06T12:03:16.559Z,47.30
2023-04-06T12:05:45.746Z,46.20
2023-04-06T12:08:14.979Z,48.20
2023-04-06T12:10:42.762Z,47.80
2023-04-06T12:13:10.457Z,47.20
2023-04-06T12:15:38.194Z,46.20
2023-04-06T12:18:06.170Z,46.80
2023-04-06T12:20:33.976Z,48.40
2023-04-06T12:23:01.804Z,48.90
2023-04-06T12:25:31.865Z,48.10
2023-04-06T12:28:00.100Z,48.70
2023-04-06T12:30:27.814Z,47.90
2023-04-06T12:32:55.964Z,47.80
2023-04-06T12:35:23.927Z,47.10
2023-04-06T12:37:51.839Z,48.20
2023-04-06T12:40:19.728Z,48.40
2023-04-06T12:42:48.931Z,48.40
2023-04-06T12:45:17.259Z,47.90
2023-04-06T12:47:45.033Z,47.00
2023-04-06T12:50:12.843Z,47.20
2023-04-06T12:52:40.899Z,45.60
2023-04-06T12:55:09.694Z,47.50
2023-04-06T12:57:38.314Z,47.50
2023-04-06T13:00:10.054Z,45.80
2023-04-06T13:02:37.993Z,45.40
2023-04-06T13:05:06.311Z,46.50
2023-04-06T13:07:34.058Z,47.30
2023-04-06T13:10:01.768Z,49.60
2023-04-06T13:12:29.491Z,48.60
2023-04-06T13:14:57.733Z,48.60
2023-04-06T13:17:29.338Z,46.20
2023-04-06T13:19:57.176Z,46.20
2023-04-06T13:22:24.985Z,47.40
2023-04-06T13:24:52.706Z,50.70
2023-04-06T13:27:20.470Z,46.10
2023-04-06T13:29:48.190Z,49.50
2023-04-06T13:32:16.699Z,47.70
2023-04-06T13:34:45.948Z,47.10
2023-04-06T13:37:14.716Z,45.40
2023-04-06T13:39:42.431Z,45.80
2023-04-06T13:42:11.058Z,45.20
2023-04-06T13:44:38.802Z,45.40
2023-04-06T13:47:06.713Z,48.10
2023-04-06T13:49:34.500Z,47.80
2023-04-06T13:52:03.626Z,46.80
2023-04-06T13:54:31.348Z,45.90
2023-04-06T13:56:59.058Z,46.60
2023-04-06T13:59:26.836Z,46.60
2023-04-06T14:01:54.914Z,46.50
2023-04-06T14:04:22.729Z,47.80
2023-04-06T14:06:50.483Z,48.40
2023-04-06T14:09:19.547Z,46.80
2023-04-06T14:11:47.329Z,46.80
2023-04-06T14:14:15.504Z,48.10
2023-04-06T14:16:45.032Z,47.30
2023-04-06T14:19:13.293Z,48.40
2023-04-06T14:21:41.183Z,46.40
2023-04-06T14:24:09.703Z,49.60
2023-04-06T14:26:39.938Z,48.30
2023-04-06T14:29:08.064Z,48.80
2023-04-06T14:31:36.564Z,49.80
2023-04-06T14:34:05.578Z,48.30
2023-04-06T14:36:37.372Z,47.90
2023-04-06T14:39:06.741Z,49.30
2023-04-06T14:41:35.686Z,48.40
2023-04-06T14:44:05.790Z,46.50
2023-04-06T14:46:33.630Z,47.90
2023-04-06T14:49:01.449Z,46.70
2023-04-06T14:51:29.396Z,48.60
2023-04-06T14:53:57.200Z,48.50
2023-04-06T14:56:25.493Z,48.40
2023-04-06T14:58:53.478Z,48.20
2023-04-06T15:01:22.945Z,47.30
2023-04-06T15:03:50.984Z,47.60
2023-04-06T15:06:21.506Z,44.90
2023-04-06T15:08:50.270Z,44.50
2023-04-06T15:11:18.049Z,44.50
2023-04-06T15:13:49.006Z,45.90
2023-04-06T15:16:16.891Z,45.00
2023-04-06T15:18:46.166Z,47.00
2023-04-06T15:21:13.878Z,44.70
2023-04-06T15:23:41.731Z,46.30
2023-04-06T15:26:09.530Z,46.70
2023-04-06T15:28:37.251Z,46.30
2023-04-06T15:31:07.169Z,46.30
2023-04-06T15:33:35.066Z,44.80
2023-04-06T15:36:14.513Z,45.20
2023-04-06T15:38:42.320Z,46.40
2023-04-06T15:41:11.253Z,46.00
2023-04-06T15:43:40.616Z,45.80
2023-04-06T15:48:41.886Z,48.10
2023-04-06T15:51:11.260Z,47.10
2023-04-06T15:53:39.430Z,48.20
2023-04-06T15:56:09.473Z,46.40
2023-04-06T15:58:37.461Z,47.70
2023-04-06T16:01:12.842Z,46.80
2023-04-06T16:03:40.927Z,45.70
2023-04-06T16:06:10.621Z,49.50
2023-04-06T16:08:39.209Z,48.90
2023-04-06T16:11:07.076Z,46.70
2023-04-06T16:13:34.949Z,47.30
2023-04-06T16:16:03.894Z,47.40
2023-04-06T16:18:34.125Z,46.20
2023-04-06T16:21:04.065Z,46.10
2023-04-06T16:23:33.617Z,46.70
2023-04-06T16:26:01.863Z,47.20
2023-04-06T16:28:29.639Z,47.50
2023-04-06T16:30:57.922Z,48.00
2023-04-06T16:33:25.686Z,47.20
2023-04-06T16:35:53.413Z,47.20
2023-04-06T16:38:22.769Z,47.50
2023-04-06T16:41:00.771Z,48.10
2023-04-06T16:43:28.557Z,49.20
2023-04-06T16:45:56.496Z,48.90
2023-04-06T16:48:24.684Z,49.70
2023-04-06T16:50:52.471Z,50.30
2023-04-06T16:53:20.330Z,50.70
2023-04-06T16:55:48.061Z,49.90
2023-04-06T16:58:17.143Z,49.60
2023-04-06T17:00:45.254Z,50.00
2023-04-06T17:03:13.108Z,49.30
2023-04-06T17:05:41.072Z,49.70
2023-04-06T17:08:08.951Z,49.60
2023-04-06T17:10:46.443Z,50.20
2023-04-06T17:13:25.684Z,50.50
2023-04-06T17:15:53.577Z,51.20
2023-04-06T17:18:21.303Z,50.60
2023-04-06T17:20:49.780Z,51.40
2023-04-06T17:23:18.053Z,51.90
2023-04-06T17:25:45.864Z,52.30
2023-04-06T17:28:13.615Z,52.90
2023-04-06T17:30:43.150Z,53.80
2023-04-06T17:33:10.998Z,54.40
2023-04-06T17:35:38.947Z,55.10
2023-04-06T17:38:08.113Z,55.60
2023-04-06T17:40:37.554Z,57.00
2023-04-06T17:43:05.656Z,57.60
2023-04-06T17:45:33.486Z,57.90
2023-04-06T17:48:02.605Z,56.30
2023-04-06T17:50:30.569Z,56.70
2023-04-06T17:52:58.391Z,57.10
2023-04-06T17:55:26.116Z,57.50
2023-04-06T17:57:53.825Z,57.40
2023-04-06T18:00:24.246Z,57.20
2023-04-06T18:02:53.023Z,58.20
2023-04-06T18:05:23.268Z,58.40
2023-04-06T18:07:52.576Z,59.10
2023-04-06T18:10:20.372Z,59.40
2023-04-06T18:12:48.104Z,59.40
2023-04-06T18:15:16.904Z,60.40
2023-04-06T18:17:45.239Z,60.40
2023-04-06T18:20:14.263Z,61.30
2023-04-06T18:22:44.814Z,62.10
2023-04-06T18:25:12.897Z,62.80
2023-04-06T18:27:40.658Z,63.00
2023-04-06T18:30:09.359Z,64.80
2023-04-06T18:32:37.115Z,66.00
2023-04-06T18:35:06.733Z,66.40
2023-04-06T18:37:34.445Z,67.00
2023-04-06T18:40:04.041Z,67.30
2023-04-06T18:42:31.763Z,67.30
2023-04-06T18:44:59.465Z,68.10
2023-04-06T18:47:27.212Z,68.60
2023-04-06T18:49:55.053Z,67.90
2023-04-06T18:52:22.763Z,68.30
2023-04-06T18:54:50.640Z,68.60
2023-04-06T18:57:19.690Z,69.20
2023-04-06T18:59:47.544Z,69.70
2023-04-06T19:02:15.344Z,70.00
2023-04-06T19:04:43.225Z,70.10
2023-04-06T19:07:11.106Z,70.60
2023-04-06T19:09:38.898Z,71.10
2023-04-06T19:12:06.972Z,71.60
2023-04-06T19:14:36.330Z,72.30
2023-04-06T19:17:04.093Z,72.10
2023-04-06T19:19:31.837Z,72.10
2023-04-06T19:22:00.598Z,72.10
2023-04-06T19:24:28.298Z,72.20
2023-04-06T19:26:57.102Z,73.50
2023-04-06T19:29:24.903Z,72.60
2023-04-06T19:31:54.012Z,72.60
2023-04-06T19:34:22.369Z,72.80
2023-04-06T19:36:50.053Z,72.40
2023-04-06T19:39:18.349Z,72.00
2023-04-06T19:41:46.046Z,73.50
2023-04-06T19:44:13.848Z,74.20
2023-04-06T19:46:42.426Z,75.40
2023-04-06T19:49:11.728Z,76.80
2023-04-06T19:51:39.540Z,77.50
2023-04-06T19:54:07.806Z,77.20
2023-04-06T19:56:35.507Z,77.40
2023-04-06T19:59:03.261Z,77.20
2023-04-06T20:01:31.035Z,77.40
2023-04-06T20:03:58.985Z,78.30
2023-04-06T20:06:28.107Z,79.50
2023-04-06T20:08:56.027Z,80.40
2023-04-06T20:11:23.723Z,80.30
2023-04-06T20:13:51.712Z,80.30
2023-04-06T20:16:19.513Z,80.00
2023-04-06T20:18:47.242Z,79.10
2023-04-06T20:21:14.915Z,79.00
2023-04-06T20:23:43.978Z,78.80
2023-04-06T20:26:11.656Z,78.00
2023-04-06T20:28:39.752Z,78.50
2023-04-06T20:31:07.853Z,79.50
2023-04-06T20:33:35.955Z,79.30
2023-04-06T20:36:04.273Z,79.90
2023-04-06T20:38:33.588Z,80.20
2023-04-06T20:41:03.041Z,80.60
2023-04-06T20:43:31.521Z,81.40
2023-04-06T20:46:01.884Z,80.30
2023-04-06T20:48:33.395Z,80.00
2023-04-06T20:51:02.026Z,78.70
2023-04-06T20:53:29.882Z,79.20
2023-04-06T20:55:58.077Z,79.60
2023-04-06T20:58:27.127Z,80.40
2023-04-06T21:00:54.812Z,80.10
2023-04-06T21:03:22.704Z,80.40
2023-04-06T21:05:53.780Z,80.40
2023-04-06T21:08:21.471Z,80.60
2023-04-06T21:10:49.167Z,79.70
2023-04-06T21:13:16.873Z,78.80
2023-04-06T21:15:45.987Z,77.60
2023-04-06T21:18:13.820Z,76.40
2023-04-06T21:20:41.576Z,76.40
2023-04-06T21:23:09.317Z,76.20
2023-04-06T21:25:37.740Z,75.00
2023-04-06T21:28:06.013Z,75.20
2023-04-06T21:30:36.953Z,74.80
2023-04-06T21:33:06.425Z,74.20
2023-04-06T21:35:34.652Z,73.90
2023-04-06T21:38:02.495Z,73.80
2023-04-06T21:40:30.190Z,74.60
2023-04-06T21:42:57.996Z,74.30
2023-04-06T21:45:26.036Z,73.70
2023-04-06T21:47:53.965Z,73.20
2023-04-06T21:50:23.086Z,73.00
2023-04-06T21:52:50.945Z,73.40
2023-04-06T21:55:18.755Z,73.40
2023-04-06T21:57:46.466Z,72.90
2023-04-06T22:00:15.330Z,72.00
2023-04-06T22:02:44.339Z,72.60
2023-04-06T22:05:12.814Z,72.90
2023-04-06T22:07:41.912Z,72.80
2023-04-06T22:10:09.941Z,73.50
2023-04-06T22:12:37.790Z,73.60
2023-04-06T22:15:06.441Z,73.80
2023-04-06T22:17:34.283Z,74.30
2023-04-06T22:20:02.105Z,74.90
2023-04-06T22:22:29.801Z,75.50
2023-04-06T22:25:00.368Z,75.90
2023-04-06T22:27:28.275Z,76.10
2023-04-06T22:29:56.107Z,76.20
2023-04-06T22:32:24.065Z,75.90
2023-04-06T22:34:51.978Z,76.50
2023-04-06T22:37:19.703Z,76.80
2023-04-06T22:39:47.441Z,77.50
2023-04-06T22:42:16.457Z,77.40
2023-04-06T22:44:44.172Z,76.00
2023-04-06T22:47:11.967Z,75.80
2023-04-06T22:49:39.708Z,76.50
2023-04-06T22:52:07.448Z,75.80
2023-04-06T22:54:35.537Z,75.50
2023-04-06T22:57:03.261Z,75.20
2023-04-06T22:59:32.342Z,75.60
2023-04-06T23:02:00.172Z,76.20
2023-04-06T23:04:28.211Z,76.40
2023-04-06T23:06:56.036Z,76.80
2023-04-06T23:09:23.765Z,77.80
2023-04-06T23:11:51.486Z,78.80
2023-04-06T23:14:19.233Z,79.10
2023-04-06T23:16:48.294Z,79.00
2023-04-06T23:19:16.073Z,79.20
2023-04-06T23:21:43.828Z,79.30
2023-04-06T23:24:11.558Z,79.40
2023-04-06T23:26:39.273Z,79.40
2023-04-06T23:29:07.111Z,79.10
2023-04-06T23:31:34.793Z,79.40
2023-04-06T23:34:03.986Z,78.60
2023-04-06T23:36:32.894Z,78.60
2023-04-06T23:39:00.871Z,78.70
2023-04-06T23:41:28.641Z,79.10
2023-04-06T23:43:56.549Z,79.20
2023-04-06T23:46:24.791Z,79.40
2023-04-06T23:48:52.625Z,79.40
2023-04-06T23:51:21.709Z,80.30
2023-04-06T23:53:49.442Z,81.40
2023-04-06T23:56:17.151Z,82.00
2023-04-06T23:58:45.284Z,82.20
